Time;durP1;ratioP1;P1;durP2;ratioP2;P2;SDS_P1;SDS_P2;PMS_P1;PMS_P2;Temp;Humidity;BMP_temperature;BMP_pressure;BME280_temperature;BME280_humidity;BME280_pressure;Samples;Min_cycle;Max_cycle;Signal;HPM_P1;HPM_P2
2023/01/22 00:01:12;;;;;;;12.88;8.45;;;;;;;;;;5096186;28;20120;-73
2023/01/22 00:03:38;;;;;;;11.85;7.72;;;;;;;;;;5079246;28;20426;-72
2023/01/22 00:06:05;;;;;;;13.82;7.75;;;;;;;;;;5085939;28;20051;-73
2023/01/22 00:08:31;;;;;;;11.95;7.43;;;;;;;;;;5090023;28;20035;-73
2023/01/22 00:10:57;;;;;;;10.30;7.38;;;;;;;;;;5088872;28;20035;-73
2023/01/22 00:13:24;;;;;;;11.00;7.03;;;;;;;;;;5072629;28;20051;-73
2023/01/22 00:15:50;;;;;;;8.80;6.05;;;;;;;;;;5090309;28;20024;-74
2023/01/22 00:18:16;;;;;;;11.50;7.07;;;;;;;;;;5086822;28;20280;-72
2023/01/22 00:20:47;;;;;;;11.30;6.57;;;;;;;;;;5079117;28;20035;-73
2023/01/22 00:23:13;;;;;;;11.00;6.35;;;;;;;;;;5085349;28;20107;-73
2023/01/22 00:25:39;;;;;;;9.85;6.20;;;;;;;;;;5073056;28;20025;-74
2023/01/22 00:28:05;;;;;;;9.60;6.70;;;;;;;;;;5090199;28;20027;-72
2023/01/22 00:30:32;;;;;;;9.15;6.22;;;;;;;;;;5085724;28;20400;-72
2023/01/22 00:32:58;;;;;;;9.68;6.57;;;;;;;;;;5084445;28;20476;-73
2023/01/22 00:35:24;;;;;;;10.50;6.30;;;;;;;;;;5090854;28;20089;-73
2023/01/22 00:37:50;;;;;;;11.80;6.78;;;;;;;;;;5090940;28;20525;-73
2023/01/22 00:40:16;;;;;;;10.80;6.78;;;;;;;;;;5086261;28;20100;-73
2023/01/22 00:42:42;;;;;;;10.77;6.80;;;;;;;;;;5085330;28;20581;-74
2023/01/22 00:45:09;;;;;;;10.60;6.50;;;;;;;;;;5088985;28;20026;-73
2023/01/22 00:47:35;;;;;;;13.95;6.35;;;;;;;;;;5092862;28;20024;-73
2023/01/22 00:50:02;;;;;;;9.48;6.53;;;;;;;;;;5083329;28;20040;-74
2023/01/22 00:52:28;;;;;;;8.82;6.80;;;;;;;;;;5088589;28;20032;-73
2023/01/22 00:54:54;;;;;;;11.95;7.38;;;;;;;;;;5089675;28;20044;-74
2023/01/22 00:57:20;;;;;;;9.25;6.10;;;;;;;;;;5091648;28;20044;-74
2023/01/22 00:59:49;;;;;;;9.95;7.28;;;;;;;;;;5082744;28;20032;-72
2023/01/22 01:02:15;;;;;;;14.10;6.47;;;;;;;;;;5073089;28;20028;-75
2023/01/22 01:04:41;;;;;;;8.25;6.03;;;;;;;;;;5082278;28;20029;-75
2023/01/22 01:07:08;;;;;;;9.40;6.40;;;;;;;;;;5089015;28;20368;-75
2023/01/22 01:09:34;;;;;;;10.98;7.15;;;;;;;;;;5082992;28;20489;-72
2023/01/22 01:12:00;;;;;;;8.65;5.65;;;;;;;;;;5087873;28;20025;-72
2023/01/22 01:14:27;;;;;;;13.20;6.57;;;;;;;;;;5083431;28;20041;-73
2023/01/22 01:16:53;;;;;;;9.10;5.90;;;;;;;;;;5089984;28;20525;-72
2023/01/22 01:19:19;;;;;;;9.85;6.07;;;;;;;;;;5094354;28;20457;-71
2023/01/22 01:21:46;;;;;;;9.73;6.65;;;;;;;;;;5090812;28;20319;-73
2023/01/22 01:24:12;;;;;;;13.05;7.18;;;;;;;;;;5093435;28;20036;-71
2023/01/22 01:26:41;;;;;;;11.77;6.80;;;;;;;;;;5091427;28;20032;-72
2023/01/22 01:29:08;;;;;;;11.23;7.50;;;;;;;;;;5090384;28;20055;-71
2023/01/22 01:31:35;;;;;;;12.55;6.75;;;;;;;;;;5082005;28;20488;-71
2023/01/22 01:34:01;;;;;;;12.73;6.68;;;;;;;;;;5090059;28;20044;-72
2023/01/22 01:36:28;;;;;;;13.63;7.85;;;;;;;;;;5093452;28;20072;-71
2023/01/22 01:38:54;;;;;;;10.52;6.82;;;;;;;;;;5100271;28;20508;-72
2023/01/22 01:41:22;;;;;;;15.07;7.07;;;;;;;;;;5092883;28;20038;-71
2023/01/22 01:44:15;;;;;;;12.23;7.65;;;;;;;;;;5093652;28;20089;-71
2023/01/22 01:46:47;;;;;;;12.05;6.63;;;;;;;;;;5083404;28;20024;-72
2023/01/22 01:49:34;;;;;;;14.02;7.50;;;;;;;;;;5071435;28;20039;-72
2023/01/22 01:52:02;;;;;;;13.18;6.65;;;;;;;;;;5083618;28;20600;-72
2023/01/22 01:54:29;;;;;;;10.40;6.10;;;;;;;;;;5094442;28;20043;-71
2023/01/22 01:56:57;;;;;;;11.07;7.35;;;;;;;;;;5088853;28;20052;-72
2023/01/22 01:59:23;;;;;;;10.10;6.38;;;;;;;;;;5093880;28;20039;-72
2023/01/22 02:01:52;;;;;;;12.27;7.07;;;;;;;;;;5090403;28;20044;-73
2023/01/22 02:04:19;;;;;;;13.13;7.03;;;;;;;;;;5082663;28;20120;-72
2023/01/22 02:06:45;;;;;;;10.95;6.45;;;;;;;;;;5085963;28;20076;-72
2023/01/22 02:09:11;;;;;;;14.52;8.18;;;;;;;;;;5089714;28;20032;-72
2023/01/22 02:11:38;;;;;;;15.15;7.80;;;;;;;;;;5087030;28;20029;-74
2023/01/22 02:14:06;;;;;;;13.55;7.13;;;;;;;;;;5094807;28;20031;-72
2023/01/22 02:16:33;;;;;;;14.38;7.93;;;;;;;;;;5079199;28;20078;-71
2023/01/22 02:18:59;;;;;;;12.63;7.07;;;;;;;;;;5081965;28;20453;-72
2023/01/22 02:21:41;;;;;;;11.35;8.65;;;;;;;;;;5078491;28;20059;-71
2023/01/22 02:24:09;;;;;;;13.70;7.90;;;;;;;;;;5078145;28;20025;-71
2023/01/22 02:26:35;;;;;;;15.43;7.63;;;;;;;;;;5080874;28;20371;-71
2023/01/22 02:29:01;;;;;;;12.55;7.78;;;;;;;;;;5082687;28;20089;-71
2023/01/22 02:31:28;;;;;;;11.35;7.60;;;;;;;;;;5079637;28;20043;-72
2023/01/22 02:33:54;;;;;;;14.07;8.02;;;;;;;;;;5089546;28;20462;-71
2023/01/22 02:36:20;;;;;;;16.33;8.32;;;;;;;;;;5069021;28;20485;-71
2023/01/22 02:38:46;;;;;;;16.52;8.20;;;;;;;;;;5089263;28;20089;-71
2023/01/22 02:41:13;;;;;;;14.55;8.55;;;;;;;;;;5092900;28;20418;-71
2023/01/22 02:43:40;;;;;;;18.63;8.63;;;;;;;;;;5085397;28;20039;-72
2023/01/22 02:46:06;;;;;;;13.63;8.52;;;;;;;;;;5066714;28;20037;-71
2023/01/22 02:48:32;;;;;;;15.07;8.48;;;;;;;;;;5073789;28;20048;-71
2023/01/22 02:50:58;;;;;;;15.85;8.07;;;;;;;;;;5091153;28;20380;-72
2023/01/22 02:53:24;;;;;;;21.25;8.20;;;;;;;;;;5090369;28;20034;-72
2023/01/22 02:55:50;;;;;;;14.93;8.05;;;;;;;;;;5088567;28;20152;-71
2023/01/22 02:58:16;;;;;;;18.45;8.90;;;;;;;;;;5090075;28;20775;-71
2023/01/22 03:00:42;;;;;;;16.00;8.90;;;;;;;;;;5098368;28;20028;-72
2023/01/22 03:03:14;;;;;;;15.07;9.00;;;;;;;;;;5090446;28;20623;-73
2023/01/22 03:05:43;;;;;;;22.65;9.52;;;;;;;;;;5086555;28;20033;-72
2023/01/22 03:08:09;;;;;;;15.07;8.75;;;;;;;;;;5089347;28;20349;-72
2023/01/22 03:10:35;;;;;;;14.82;8.30;;;;;;;;;;5087764;28;20444;-72
2023/01/22 03:21:17;;;;;;;16.30;8.40;;;;;;;;;;5088785;28;20582;-71
2023/01/22 03:23:47;;;;;;;16.83;8.73;;;;;;;;;;5089759;28;20047;-73
2023/01/22 03:26:14;;;;;;;19.80;8.77;;;;;;;;;;5088873;28;20097;-72
2023/01/22 03:28:40;;;;;;;12.27;7.97;;;;;;;;;;5094294;28;20034;-72
2023/01/22 03:31:06;;;;;;;18.58;9.45;;;;;;;;;;5092087;28;20020;-73
2023/01/22 03:33:33;;;;;;;18.63;9.90;;;;;;;;;;5095987;28;20034;-71
2023/01/22 03:36:00;;;;;;;21.52;9.13;;;;;;;;;;5086349;28;20028;-72
2023/01/22 03:38:26;;;;;;;17.65;8.48;;;;;;;;;;5088695;28;20488;-73
2023/01/22 03:40:52;;;;;;;17.88;8.75;;;;;;;;;;5086764;28;20032;-72
2023/01/22 03:43:18;;;;;;;18.30;9.20;;;;;;;;;;5089363;28;20044;-71
2023/01/22 03:45:44;;;;;;;19.63;8.13;;;;;;;;;;5091766;28;20036;-72
2023/01/22 03:48:10;;;;;;;12.90;7.85;;;;;;;;;;5086509;28;20024;-71
2023/01/22 03:50:36;;;;;;;13.38;7.63;;;;;;;;;;5085156;28;20040;-73
2023/01/22 03:53:03;;;;;;;14.32;7.28;;;;;;;;;;5093490;28;20043;-73
2023/01/22 03:55:29;;;;;;;18.20;7.07;;;;;;;;;;5083488;28;20020;-72
2023/01/22 03:57:55;;;;;;;16.83;7.30;;;;;;;;;;5086130;28;20113;-72
2023/01/22 04:00:21;;;;;;;18.17;8.20;;;;;;;;;;5089973;28;20028;-72
2023/01/22 04:02:48;;;;;;;12.60;6.75;;;;;;;;;;5089238;28;20031;-72
2023/01/22 04:05:14;;;;;;;8.85;6.75;;;;;;;;;;5086819;28;20039;-73
2023/01/22 04:07:40;;;;;;;10.10;5.95;;;;;;;;;;5091758;28;20108;-72
2023/01/22 04:10:07;;;;;;;13.52;7.00;;;;;;;;;;5092223;28;20034;-72
2023/01/22 04:12:33;;;;;;;9.70;5.78;;;;;;;;;;5092447;28;20487;-72
2023/01/22 04:14:59;;;;;;;14.25;5.75;;;;;;;;;;5087056;28;20361;-75
2023/01/22 04:17:25;;;;;;;10.95;5.10;;;;;;;;;;5092401;28;20097;-72
2023/01/22 04:19:51;;;;;;;11.60;5.30;;;;;;;;;;5087824;28;20047;-72
2023/01/22 04:22:17;;;;;;;11.20;5.22;;;;;;;;;;5090425;28;20056;-73
2023/01/22 04:24:43;;;;;;;7.95;4.75;;;;;;;;;;5096432;28;20028;-72
2023/01/22 04:27:09;;;;;;;13.98;5.00;;;;;;;;;;5087315;28;20051;-74
2023/01/22 04:29:35;;;;;;;10.93;5.20;;;;;;;;;;5083535;28;20554;-72
2023/01/22 04:32:01;;;;;;;7.93;4.25;;;;;;;;;;5087385;28;20530;-73
2023/01/22 04:34:27;;;;;;;11.38;4.07;;;;;;;;;;5087971;28;20552;-72
2023/01/22 04:36:53;;;;;;;7.63;4.38;;;;;;;;;;5097737;28;20028;-72
2023/01/22 04:39:19;;;;;;;10.30;4.43;;;;;;;;;;5093065;28;20035;-72
2023/01/22 04:41:45;;;;;;;13.88;4.68;;;;;;;;;;5095897;28;20465;-72
2023/01/22 04:44:11;;;;;;;15.68;4.15;;;;;;;;;;5091702;28;20040;-72
2023/01/22 04:46:37;;;;;;;8.10;4.53;;;;;;;;;;5097242;28;20039;-72
2023/01/22 04:49:03;;;;;;;6.20;4.28;;;;;;;;;;5088819;28;20048;-73
2023/01/22 04:51:29;;;;;;;8.43;4.38;;;;;;;;;;5095826;28;20033;-73
2023/01/22 04:53:55;;;;;;;7.85;3.83;;;;;;;;;;5072253;28;20033;-73
2023/01/22 05:02:05;;;;;;;9.18;4.53;;;;;;;;;;5095104;28;20042;-72
2023/01/22 05:04:31;;;;;;;6.07;3.80;;;;;;;;;;5086686;28;20584;-73
2023/01/22 05:06:57;;;;;;;6.90;3.67;;;;;;;;;;5093160;28;20733;-74
2023/01/22 05:09:24;;;;;;;6.05;3.67;;;;;;;;;;5082593;28;20025;-73
2023/01/22 05:11:50;;;;;;;7.43;3.92;;;;;;;;;;5073989;28;20547;-73
2023/01/22 05:14:16;;;;;;;7.22;4.05;;;;;;;;;;5095943;28;20028;-73
2023/01/22 05:16:42;;;;;;;7.95;3.80;;;;;;;;;;5097402;28;20035;-72
2023/01/22 05:19:08;;;;;;;6.60;3.78;;;;;;;;;;5099729;28;20032;-73
2023/01/22 05:21:34;;;;;;;6.45;3.80;;;;;;;;;;5093261;28;20032;-73
2023/01/22 05:24:00;;;;;;;8.27;4.40;;;;;;;;;;5093785;28;20028;-73
2023/01/22 05:26:26;;;;;;;4.97;3.15;;;;;;;;;;5087500;28;20039;-72
2023/01/22 05:28:52;;;;;;;7.78;3.95;;;;;;;;;;5094367;28;20024;-73
2023/01/22 05:31:18;;;;;;;5.97;3.35;;;;;;;;;;5091784;28;20023;-72
2023/01/22 05:33:44;;;;;;;6.82;3.20;;;;;;;;;;5089644;28;20028;-73
2023/01/22 05:36:14;;;;;;;4.55;3.20;;;;;;;;;;5071532;28;20380;-71
2023/01/22 05:38:40;;;;;;;6.97;3.22;;;;;;;;;;5081915;28;20399;-72
2023/01/22 05:41:06;;;;;;;10.45;4.07;;;;;;;;;;5081091;28;20092;-73
2023/01/22 05:43:32;;;;;;;10.55;3.95;;;;;;;;;;5088497;28;20089;-72
2023/01/22 05:46:01;;;;;;;5.70;3.67;;;;;;;;;;5099485;28;20025;-72
2023/01/22 05:48:27;;;;;;;10.60;3.78;;;;;;;;;;5090203;28;20396;-73
2023/01/22 05:50:53;;;;;;;6.30;3.42;;;;;;;;;;5096478;28;20028;-72
2023/01/22 05:53:19;;;;;;;5.28;3.70;;;;;;;;;;5089970;28;20361;-72
2023/01/22 05:55:45;;;;;;;4.85;3.17;;;;;;;;;;5087935;28;20020;-72
2023/01/22 05:58:11;;;;;;;5.25;3.33;;;;;;;;;;5067605;28;20056;-72
2023/01/22 06:00:37;;;;;;;4.30;3.28;;;;;;;;;;5090940;28;20042;-72
2023/01/22 06:03:03;;;;;;;7.45;4.03;;;;;;;;;;5078880;28;20026;-72
2023/01/22 06:05:30;;;;;;;9.65;3.53;;;;;;;;;;5094364;28;20036;-72
2023/01/22 06:07:56;;;;;;;6.90;3.88;;;;;;;;;;5092550;28;20034;-73
2023/01/22 06:10:22;;;;;;;5.85;4.00;;;;;;;;;;5066308;28;20082;-73
2023/01/22 06:12:48;;;;;;;14.65;4.55;;;;;;;;;;5087575;28;20043;-72
2023/01/22 06:15:14;;;;;;;7.13;3.50;;;;;;;;;;5098608;28;20168;-72
2023/01/22 06:17:40;;;;;;;11.82;3.92;;;;;;;;;;5092552;28;20111;-72
2023/01/22 06:20:06;;;;;;;4.68;3.05;;;;;;;;;;5097859;28;20079;-72
2023/01/22 06:22:32;;;;;;;4.93;3.50;;;;;;;;;;5085711;28;20098;-74
2023/01/22 06:24:58;;;;;;;6.45;3.97;;;;;;;;;;5089027;28;20109;-72
2023/01/22 06:27:24;;;;;;;12.45;5.18;;;;;;;;;;5091681;28;20033;-72
2023/01/22 06:29:51;;;;;;;9.05;2.85;;;;;;;;;;5096914;28;20051;-72
2023/01/22 06:32:17;;;;;;;3.83;2.90;;;;;;;;;;5093505;28;20028;-72
2023/01/22 06:34:43;;;;;;;7.88;3.42;;;;;;;;;;5089826;28;20036;-72
2023/01/22 06:37:09;;;;;;;5.90;3.10;;;;;;;;;;5089861;28;20035;-72
2023/01/22 06:39:35;;;;;;;5.88;3.58;;;;;;;;;;5087309;28;20381;-71
2023/01/22 06:42:01;;;;;;;5.47;3.80;;;;;;;;;;5075362;28;20027;-73
2023/01/22 06:44:27;;;;;;;8.60;3.10;;;;;;;;;;5084909;28;20032;-72
2023/01/22 06:46:53;;;;;;;7.43;2.78;;;;;;;;;;5085843;28;20234;-72
2023/01/22 06:49:19;;;;;;;7.60;3.10;;;;;;;;;;5081661;28;20044;-71
2023/01/22 06:51:45;;;;;;;6.35;3.05;;;;;;;;;;5086271;28;20020;-73
2023/01/22 06:54:12;;;;;;;5.60;2.90;;;;;;;;;;5088132;28;20135;-70
2023/01/22 06:56:38;;;;;;;20.83;9.55;;;;;;;;;;5103157;28;20356;-73
2023/01/22 06:59:04;;;;;;;13.32;6.90;;;;;;;;;;5080784;28;20532;-75
2023/01/22 07:01:30;;;;;;;6.50;3.40;;;;;;;;;;5102342;28;20036;-71
2023/01/22 07:03:56;;;;;;;15.35;3.35;;;;;;;;;;5092404;28;20035;-72
2023/01/22 07:06:22;;;;;;;4.43;2.42;;;;;;;;;;5087311;28;20016;-72
2023/01/22 07:08:48;;;;;;;7.93;2.72;;;;;;;;;;5091747;28;20028;-73
2023/01/22 07:11:15;;;;;;;8.75;3.35;;;;;;;;;;5091943;28;20067;-73
2023/01/22 07:13:41;;;;;;;3.53;3.20;;;;;;;;;;5087367;28;20417;-72
2023/01/22 07:16:07;;;;;;;10.18;2.75;;;;;;;;;;5089543;28;20141;-72
2023/01/22 07:18:33;;;;;;;5.78;3.03;;;;;;;;;;5093823;28;20036;-72
2023/01/22 07:21:01;;;;;;;7.68;2.60;;;;;;;;;;5088138;28;20051;-73
2023/01/22 07:23:28;;;;;;;4.60;2.85;;;;;;;;;;5092484;28;20027;-73
2023/01/22 07:25:54;;;;;;;6.00;2.80;;;;;;;;;;5084335;28;20058;-72
2023/01/22 07:28:21;;;;;;;5.20;3.08;;;;;;;;;;5094928;28;20622;-72
2023/01/22 07:30:47;;;;;;;8.65;3.08;;;;;;;;;;5089698;28;20044;-72
2023/01/22 07:33:13;;;;;;;7.82;4.20;;;;;;;;;;5090486;28;20505;-71
2023/01/22 07:35:39;;;;;;;16.67;7.18;;;;;;;;;;5082447;28;20032;-70
2023/01/22 07:38:06;;;;;;;5.05;2.80;;;;;;;;;;5081087;28;20487;-73
2023/01/22 07:40:33;;;;;;;5.68;2.85;;;;;;;;;;5093070;28;20043;-73
2023/01/22 07:42:59;;;;;;;6.60;3.50;;;;;;;;;;5085533;28;20028;-72
2023/01/22 07:45:25;;;;;;;8.88;3.08;;;;;;;;;;5071722;28;20040;-72
2023/01/22 07:47:55;;;;;;;6.05;2.78;;;;;;;;;;5087655;28;20031;-73
2023/01/22 07:50:25;;;;;;;5.25;2.72;;;;;;;;;;5093626;28;20020;-71
2023/01/22 07:52:51;;;;;;;6.85;2.83;;;;;;;;;;5088090;28;20043;-72
2023/01/22 07:55:17;;;;;;;9.82;3.08;;;;;;;;;;5091002;28;20061;-72
2023/01/22 07:57:43;;;;;;;3.90;2.60;;;;;;;;;;5077991;28;20067;-71
2023/01/22 08:00:10;;;;;;;9.25;2.97;;;;;;;;;;5056174;28;20033;-71
2023/01/22 08:02:37;;;;;;;5.60;2.75;;;;;;;;;;5058208;28;20115;-72
2023/01/22 08:05:03;;;;;;;6.95;2.90;;;;;;;;;;5060606;28;20693;-74
2023/01/22 08:07:29;;;;;;;3.10;2.72;;;;;;;;;;5065421;28;20047;-73
2023/01/22 08:09:55;;;;;;;8.32;2.95;;;;;;;;;;5075288;28;20029;-73
2023/01/22 08:12:22;;;;;;;7.00;3.40;;;;;;;;;;5063087;28;20119;-77
2023/01/22 08:14:48;;;;;;;4.85;2.97;;;;;;;;;;5066017;28;20068;-74
2023/01/22 08:17:14;;;;;;;6.25;3.35;;;;;;;;;;5058596;28;20020;-77
2023/01/22 08:19:40;;;;;;;6.43;3.13;;;;;;;;;;5055069;28;20024;-74
2023/01/22 08:22:06;;;;;;;5.82;3.35;;;;;;;;;;5064937;28;20024;-74
2023/01/22 08:24:33;;;;;;;11.80;3.28;;;;;;;;;;5074717;28;20049;-73
2023/01/22 08:26:59;;;;;;;5.07;2.95;;;;;;;;;;5065520;28;20028;-74
2023/01/22 08:29:26;;;;;;;5.18;3.20;;;;;;;;;;5069194;28;20033;-73
2023/01/22 08:31:52;;;;;;;9.73;5.07;;;;;;;;;;5068052;28;20040;-73
2023/01/22 08:34:19;;;;;;;5.43;4.28;;;;;;;;;;5068129;28;20119;-77
2023/01/22 08:36:45;;;;;;;6.65;3.80;;;;;;;;;;5073578;28;20032;-77
2023/01/22 08:39:12;;;;;;;6.32;3.85;;;;;;;;;;5075787;28;20730;-72
2023/01/22 08:41:38;;;;;;;4.32;2.88;;;;;;;;;;5063867;28;20037;-75
2023/01/22 08:44:04;;;;;;;5.85;3.55;;;;;;;;;;5063218;28;20032;-73
2023/01/22 08:46:30;;;;;;;6.28;3.38;;;;;;;;;;5066724;28;20032;-72
2023/01/22 08:48:57;;;;;;;4.38;2.83;;;;;;;;;;5057373;28;20485;-73
2023/01/22 08:51:25;;;;;;;6.80;3.60;;;;;;;;;;5071031;28;20361;-73
2023/01/22 08:53:51;;;;;;;6.50;3.28;;;;;;;;;;5082942;28;20127;-72
2023/01/22 08:56:17;;;;;;;10.32;3.65;;;;;;;;;;5079054;28;20028;-73
2023/01/22 08:58:43;;;;;;;5.03;3.08;;;;;;;;;;5085069;28;20040;-73
2023/01/22 09:01:16;;;;;;;11.88;4.32;;;;;;;;;;5096522;28;20031;-72
2023/01/22 09:03:42;;;;;;;6.38;4.63;;;;;;;;;;5080426;28;20204;-72
2023/01/22 09:06:08;;;;;;;7.57;3.95;;;;;;;;;;5074111;28;20032;-72
2023/01/22 09:08:34;;;;;;;7.82;3.63;;;;;;;;;;5095358;28;20047;-73
2023/01/22 09:11:02;;;;;;;5.05;3.83;;;;;;;;;;5085864;28;20131;-76
2023/01/22 09:13:28;;;;;;;37.45;15.82;;;;;;;;;;5092500;28;20396;-73
2023/01/22 09:15:58;;;;;;;16.05;7.18;;;;;;;;;;5091414;28;20425;-73
2023/01/22 09:18:24;;;;;;;6.45;3.67;;;;;;;;;;5099567;28;20035;-72
2023/01/22 09:20:50;;;;;;;8.95;4.57;;;;;;;;;;5099196;28;20051;-75
2023/01/22 09:23:16;;;;;;;6.97;3.88;;;;;;;;;;5097674;28;20430;-72
2023/01/22 09:25:42;;;;;;;6.93;3.88;;;;;;;;;;5097785;28;20046;-78
2023/01/22 09:28:11;;;;;;;9.35;4.32;;;;;;;;;;5084072;28;20040;-69
2023/01/22 09:30:41;;;;;;;6.72;3.67;;;;;;;;;;5089512;28;20039;-71
2023/01/22 09:33:07;;;;;;;6.95;3.97;;;;;;;;;;5098848;28;20262;-75
2023/01/22 09:35:33;;;;;;;5.88;4.28;;;;;;;;;;5096231;28;20433;-74
2023/01/22 09:38:02;;;;;;;7.70;3.70;;;;;;;;;;5078752;28;20020;-74
2023/01/22 09:40:29;;;;;;;7.90;4.53;;;;;;;;;;5098847;28;20157;-73
2023/01/22 09:43:03;;;;;;;6.68;3.83;;;;;;;;;;5095767;28;20035;-74
2023/01/22 09:45:29;;;;;;;5.03;4.05;;;;;;;;;;5099887;28;20023;-73
2023/01/22 09:47:59;;;;;;;5.55;3.85;;;;;;;;;;5095009;28;20105;-72
2023/01/22 09:50:27;;;;;;;5.32;3.67;;;;;;;;;;5096455;28;20019;-73
2023/01/22 09:52:55;;;;;;;6.45;4.53;;;;;;;;;;5106662;28;20113;-73
2023/01/22 09:55:23;;;;;;;5.80;3.60;;;;;;;;;;5074884;28;20023;-75
2023/01/22 09:57:51;;;;;;;4.90;3.83;;;;;;;;;;5100801;28;20052;-72
2023/01/22 10:00:22;;;;;;;7.53;3.90;;;;;;;;;;5108443;28;20066;-80
2023/01/22 10:02:52;;;;;;;5.38;4.35;;;;;;;;;;5100440;28;20031;-79
2023/01/22 10:05:27;;;;;;;10.15;4.13;;;;;;;;;;5093854;28;20028;-79
2023/01/22 10:07:59;;;;;;;6.78;3.58;;;;;;;;;;5093340;28;20088;-81
2023/01/22 10:10:26;;;;;;;6.18;4.03;;;;;;;;;;5079748;28;20020;-81
2023/01/22 10:12:57;;;;;;;5.85;3.90;;;;;;;;;;5075333;28;20032;-80
2023/01/22 10:15:24;;;;;;;7.90;4.53;;;;;;;;;;5088632;28;20085;-80
2023/01/22 10:17:50;;;;;;;8.40;5.07;;;;;;;;;;5090723;28;20028;-83
2023/01/22 10:20:17;;;;;;;13.85;8.25;;;;;;;;;;5102564;28;20186;-82
2023/01/22 10:22:44;;;;;;;8.60;4.28;;;;;;;;;;5095447;28;20024;-82
2023/01/22 10:25:13;;;;;;;8.13;4.45;;;;;;;;;;5085924;28;20027;-78
2023/01/22 10:27:40;;;;;;;5.68;4.25;;;;;;;;;;5103353;28;20362;-81
2023/01/22 10:30:06;;;;;;;6.18;4.28;;;;;;;;;;5099635;28;20487;-83
2023/01/22 10:32:32;;;;;;;6.10;4.57;;;;;;;;;;5098046;28;20031;-78
2023/01/22 10:34:59;;;;;;;6.18;3.78;;;;;;;;;;5085024;28;20023;-81
2023/01/22 10:37:26;;;;;;;9.05;4.60;;;;;;;;;;5098554;28;20024;-79
2023/01/22 10:39:55;;;;;;;9.02;4.10;;;;;;;;;;5091289;28;20472;-79
2023/01/22 10:42:23;;;;;;;8.32;4.40;;;;;;;;;;5076375;28;20032;-74
2023/01/22 10:44:50;;;;;;;6.18;3.75;;;;;;;;;;5091793;28;20081;-75
2023/01/22 10:47:20;;;;;;;13.73;4.68;;;;;;;;;;5098322;28;20020;-76
2023/01/22 10:49:47;;;;;;;7.82;4.00;;;;;;;;;;5092858;28;20055;-79
2023/01/22 10:52:48;;;;;;;7.90;4.18;;;;;;;;;;5077782;28;20032;-74
2023/01/22 10:55:22;;;;;;;6.32;3.63;;;;;;;;;;5025475;28;20045;-74
2023/01/22 10:57:51;;;;;;;6.55;4.13;;;;;;;;;;5084074;28;20059;-75
2023/01/22 11:00:17;;;;;;;5.00;3.83;;;;;;;;;;5089889;28;20665;-74
2023/01/22 11:02:44;;;;;;;8.00;4.57;;;;;;;;;;5097330;28;20025;-76
2023/01/22 11:05:17;;;;;;;6.20;4.32;;;;;;;;;;5077488;28;20036;-75
2023/01/22 11:07:44;;;;;;;9.98;4.72;;;;;;;;;;5095660;28;20028;-74
2023/01/22 11:10:18;;;;;;;11.13;4.63;;;;;;;;;;5090697;28;20035;-74
2023/01/22 11:13:04;;;;;;;8.07;4.03;;;;;;;;;;5096115;28;20016;-75
2023/01/22 11:15:57;;;;;;;9.82;4.13;;;;;;;;;;5099796;28;20027;-75
2023/01/22 11:18:28;;;;;;;7.82;4.93;;;;;;;;;;5064288;28;20369;-75
2023/01/22 11:20:55;;;;;;;5.53;4.30;;;;;;;;;;5094878;27;20032;-74
2023/01/22 11:23:32;;;;;;;7.03;4.28;;;;;;;;;;5096067;28;20023;-74
2023/01/22 11:26:01;;;;;;;6.13;4.78;;;;;;;;;;5092041;28;20036;-78
2023/01/22 11:28:40;;;;;;;6.18;4.07;;;;;;;;;;5097126;28;20062;-75
2023/01/22 11:31:12;;;;;;;6.53;4.68;;;;;;;;;;5088527;28;20383;-78
2023/01/22 11:33:54;;;;;;;7.15;3.85;;;;;;;;;;5096731;28;20051;-74
2023/01/22 11:36:26;;;;;;;8.55;4.68;;;;;;;;;;5099326;28;20032;-74
2023/01/22 11:38:52;;;;;;;;;;;;;;;;;;5091820;28;20396;-75
2023/01/22 11:41:37;;;;;;;10.20;4.85;;;;;;;;;;5097275;28;19951;-74
2023/01/22 11:44:22;;;;;;;5.78;4.35;;;;;;;;;;5099894;28;20059;-74
2023/01/22 11:46:50;;;;;;;4.93;3.97;;;;;;;;;;5079267;28;20054;-75
2023/01/22 11:49:21;;;;;;;6.28;4.30;;;;;;;;;;5093516;28;20054;-75
2023/01/22 11:52:06;;;;;;;11.82;4.32;;;;;;;;;;5104623;28;20356;-76
2023/01/22 11:54:41;;;;;;;6.80;4.50;;;;;;;;;;5109558;28;20028;-75
2023/01/22 11:57:23;;;;;;;6.13;4.88;;;;;;;;;;5092819;28;20059;-74
2023/01/22 12:00:02;;;;;;;10.25;5.40;;;;;;;;;;5111801;27;20039;-79
2023/01/22 12:02:47;;;;;;;13.30;5.15;;;;;;;;;;5106489;27;20102;-76
2023/01/22 12:05:16;;;;;;;5.47;4.53;;;;;;;;;;5099669;27;20023;-75
2023/01/22 12:07:43;;;;;;;10.10;4.97;;;;;;;;;;5109508;27;20030;-73
2023/01/22 12:10:19;;;;;;;7.50;5.13;;;;;;;;;;5111556;27;20069;-73
2023/01/22 12:12:59;;;;;;;14.18;7.28;;;;;;;;;;5086719;28;20039;-76
2023/01/22 12:15:49;;;;;;;24.13;13.65;;;;;;;;;;5101623;28;20023;-78
2023/01/22 12:18:18;;;;;;;7.82;4.68;;;;;;;;;;5105591;27;20031;-74
2023/01/22 12:20:56;;;;;;;5.75;4.50;;;;;;;;;;5103577;27;20020;-76
2023/01/22 12:23:26;;;;;;;7.25;4.75;;;;;;;;;;5103511;27;20400;-76
2023/01/22 12:25:52;;;;;;;6.85;5.28;;;;;;;;;;5087511;28;20042;-77
2023/01/22 12:28:21;;;;;;;7.68;4.55;;;;;;;;;;5100167;28;20369;-75
2023/01/22 12:30:55;;;;;;;9.65;4.38;;;;;;;;;;5104134;28;20031;-76
2023/01/22 12:33:25;;;;;;;8.50;4.95;;;;;;;;;;5113648;28;20498;-75
2023/01/22 12:35:52;;;;;;;5.63;3.83;;;;;;;;;;5110901;28;20027;-76
2023/01/22 12:38:21;;;;;;;6.75;4.45;;;;;;;;;;5097335;28;20027;-75
2023/01/22 12:41:03;;;;;;;7.47;4.63;;;;;;;;;;5106202;28;20515;-76
2023/01/22 12:43:33;;;;;;;5.90;4.22;;;;;;;;;;5106340;28;20012;-78
2023/01/22 12:46:04;;;;;;;6.70;4.00;;;;;;;;;;5106680;28;20050;-77
2023/01/22 12:48:42;;;;;;;7.07;4.82;;;;;;;;;;5099483;28;20116;-80
2023/01/22 12:51:23;;;;;;;6.53;4.47;;;;;;;;;;5100917;28;20027;-77
2023/01/22 12:53:49;;;;;;;7.07;4.15;;;;;;;;;;5103570;28;20027;-75
2023/01/22 12:56:27;;;;;;;9.45;5.20;;;;;;;;;;5110626;28;20054;-76
2023/01/22 12:58:57;;;;;;;21.05;10.80;;;;;;;;;;5095704;28;20051;-78
2023/01/22 13:01:30;;;;;;;15.63;6.05;;;;;;;;;;5102283;28;20024;-76
2023/01/22 13:03:58;;;;;;;10.93;4.50;;;;;;;;;;5110194;27;20032;-75
2023/01/22 13:06:30;;;;;;;11.45;3.80;;;;;;;;;;5102967;27;20175;-77
2023/01/22 13:08:56;;;;;;;6.18;4.00;;;;;;;;;;5109560;27;20528;-76
2023/01/22 13:11:35;;;;;;;7.07;4.13;;;;;;;;;;5113180;27;20023;-75
2023/01/22 13:14:17;;;;;;;11.38;4.90;;;;;;;;;;5094156;28;20081;-76
2023/01/22 13:17:10;;;;;;;10.50;5.63;;;;;;;;;;5109724;27;20498;-75
2023/01/22 13:19:38;;;;;;;9.35;4.38;;;;;;;;;;5104739;27;20297;-75
2023/01/22 13:22:06;;;;;;;7.88;4.10;;;;;;;;;;5112677;27;20023;-75
2023/01/22 13:24:33;;;;;;;7.03;3.67;;;;;;;;;;5112294;27;20060;-75
2023/01/22 13:27:00;;;;;;;9.75;5.05;;;;;;;;;;5113559;27;20027;-76
2023/01/22 13:29:28;;;;;;;12.15;4.50;;;;;;;;;;5111231;27;20479;-75
2023/01/22 13:31:55;;;;;;;12.68;5.43;;;;;;;;;;5103260;28;20035;-77
2023/01/22 13:34:21;;;;;;;9.07;4.63;;;;;;;;;;5107183;27;20024;-79
2023/01/22 13:36:48;;;;;;;13.88;4.85;;;;;;;;;;5109209;27;20429;-76
2023/01/22 13:39:23;;;;;;;12.55;5.10;;;;;;;;;;5106747;27;20036;-77
2023/01/22 13:41:51;;;;;;;17.58;4.38;;;;;;;;;;5114414;27;20142;-81
2023/01/22 13:44:18;;;;;;;4.72;4.13;;;;;;;;;;5104355;27;20106;-77
2023/01/22 13:46:44;;;;;;;8.77;5.78;;;;;;;;;;5113022;27;20068;-76
2023/01/22 13:49:15;;;;;;;11.65;5.57;;;;;;;;;;5112713;27;20070;-76
2023/01/22 13:51:41;;;;;;;14.27;6.03;;;;;;;;;;5118663;27;20059;-75
2023/01/22 13:54:09;;;;;;;9.60;4.38;;;;;;;;;;5103761;27;20036;-75
2023/01/22 13:56:36;;;;;;;14.20;6.35;;;;;;;;;;5105345;27;20020;-79
2023/01/22 13:59:19;;;;;;;6.95;4.22;;;;;;;;;;5101885;28;20398;-76
2023/01/22 14:01:45;;;;;;;9.85;4.68;;;;;;;;;;5107974;27;20016;-76
2023/01/22 14:04:28;;;;;;;9.30;4.32;;;;;;;;;;5113692;27;20409;-75
2023/01/22 14:06:55;;;;;;;9.40;4.30;;;;;;;;;;5110584;27;20042;-80
2023/01/22 14:09:28;;;;;;;6.05;4.35;;;;;;;;;;5111578;28;20059;-79
2023/01/22 14:11:54;;;;;;;10.45;4.80;;;;;;;;;;5105512;27;20031;-76
2023/01/22 14:14:20;;;;;;;7.15;4.32;;;;;;;;;;5113594;27;20089;-75
2023/01/22 14:16:46;;;;;;;7.70;3.72;;;;;;;;;;5106847;27;20387;-76
2023/01/22 14:19:13;;;;;;;8.48;5.40;;;;;;;;;;5109306;27;20499;-75
2023/01/22 14:21:39;;;;;;;10.70;4.80;;;;;;;;;;5110535;27;20061;-75
2023/01/22 14:24:05;;;;;;;8.50;4.75;;;;;;;;;;5108806;27;20353;-77
2023/01/22 14:26:32;;;;;;;11.68;5.47;;;;;;;;;;5109587;27;20032;-74
2023/01/22 14:28:58;;;;;;;9.30;5.07;;;;;;;;;;5111504;27;20096;-74
2023/01/22 14:31:24;;;;;;;10.20;4.60;;;;;;;;;;5111366;27;20027;-74
2023/01/22 14:33:50;;;;;;;8.80;4.95;;;;;;;;;;5110271;27;20028;-76
2023/01/22 14:36:17;;;;;;;8.52;4.85;;;;;;;;;;5118550;27;20026;-74
2023/01/22 14:38:43;;;;;;;9.27;5.10;;;;;;;;;;5111930;27;20399;-74
2023/01/22 14:41:09;;;;;;;11.05;5.43;;;;;;;;;;5105783;27;20028;-74
2023/01/22 14:43:35;;;;;;;10.45;5.60;;;;;;;;;;5108511;27;20032;-74
2023/01/22 14:46:01;;;;;;;7.03;4.97;;;;;;;;;;5113653;27;20028;-76
2023/01/22 14:48:27;;;;;;;8.90;4.72;;;;;;;;;;5106354;27;20027;-78
2023/01/22 14:50:53;;;;;;;10.63;5.70;;;;;;;;;;5108618;27;20099;-75
2023/01/22 14:53:19;;;;;;;10.70;6.18;;;;;;;;;;5106945;28;20039;-73
2023/01/22 14:55:45;;;;;;;15.63;7.20;;;;;;;;;;5104059;27;20487;-75
2023/01/22 14:58:11;;;;;;;10.77;7.22;;;;;;;;;;5112907;27;20039;-74